N49 EDDM-EDDN
Flight info
| Callsign | N49 |
|---|---|
| Flight time | N/A |
| Altitude | 30000 |
| Route | EDDM/08L GIVMI Y101 INBED DCT REKDI DCT OSBIT DCT TEKTU DCT TESGA DCT UMUPU T880 BATTY |
| Aircraft | C700/M-SBDGHM1RWXY/LB2 |
Departure
| Time | N/A |
|---|---|
| Airport | Munich Airport (EDDM) |
Arrival
| Time | 2026-04-29 21:14 |
|---|---|
| Airport | Nuremberg Airport (EDDN) |
| Time | Latitude | Longitude | Altitude | Speed | Heading |
|---|---|---|---|---|---|
| 2026-04-29 21:11 | 49.51633 | 10.89893 | 3184 ft | 145 kts | 95° |
| 2026-04-29 21:11 | 49.51493 | 10.91414 | 2990 ft | 142 kts | 96° |
| 2026-04-29 21:11 | 49.51335 | 10.92910 | 2797 ft | 141 kts | 96° |
| 2026-04-29 21:12 | 49.51185 | 10.94397 | 2570 ft | 141 kts | 95° |
| 2026-04-29 21:12 | 49.51046 | 10.95878 | 2380 ft | 139 kts | 96° |
| 2026-04-29 21:12 | 49.50911 | 10.97328 | 2148 ft | 137 kts | 93° |
| 2026-04-29 21:12 | 49.50779 | 10.98810 | 1997 ft | 144 kts | 95° |
| 2026-04-29 21:13 | 49.50624 | 11.00355 | 1829 ft | 148 kts | 95° |
| 2026-04-29 21:13 | 49.50465 | 11.01956 | 1603 ft | 153 kts | 98° |
| 2026-04-29 21:13 | 49.50293 | 11.03584 | 1395 ft | 150 kts | 96° |
| 2026-04-29 21:13 | 49.50151 | 11.05018 | 1219 ft | 127 kts | 93° |
| 2026-04-29 21:14 | 49.50028 | 11.06273 | 1055 ft | 105 kts | 94° |
| 2026-04-29 21:14 | 49.49939 | 11.07160 | 1034 ft | 56 kts | 99° |
| 2026-04-29 21:14 | 49.49904 | 11.07489 | 1040 ft | 19 kts | 98° |
| 2026-04-29 21:14 | 49.49842 | 11.07637 | 1040 ft | 17 kts | 153° |
| 2026-04-29 21:15 | 49.49744 | 11.07713 | 1040 ft | 0 kts | 154° |
| 2026-04-29 21:16 | 49.49739 | 11.07717 | 1040 ft | 8 kts | 153° |
| 2026-04-29 21:17 | 49.49654 | 11.07816 | 1035 ft | 16 kts | 110° |
| 2026-04-29 21:17 | 49.49624 | 11.07924 | 1035 ft | 6 kts | 167° |
| 2026-04-29 21:17 | 49.49617 | 11.07924 | 1034 ft | 0 kts | 184° |